Time;durP1;ratioP1;P1;durP2;ratioP2;P2;SDS_P1;SDS_P2;PMS_P1;PMS_P2;Temp;Humidity;BMP_temperature;BMP_pressure;BME280_temperature;BME280_humidity;BME280_pressure;Samples;Min_cycle;Max_cycle;Signal;HPM_P1;HPM_P2
2022/11/04 00:00:27;;;;;;;2.45;2.00;;;9.20;99.90;;;;;;6182995;23;20127;-83
2022/11/04 00:03:16;;;;;;;2.83;1.73;;;9.30;1.00;;;;;;6184453;23;20040;-83
2022/11/04 00:06:09;;;;;;;3.65;2.03;;;9.20;92.90;;;;;;6237530;22;20325;-84
2022/11/04 00:08:56;;;;;;;;;;;9.10;1.00;;;;;;6244810;23;20099;-83
2022/11/04 00:14:53;;;;;;;3.10;2.00;;;9.10;1.00;;;;;;6244570;23;20024;-82
2022/11/04 00:17:43;;;;;;;2.47;2.08;;;9.10;98.20;;;;;;6245905;23;20052;-82
2022/11/04 00:29:47;;;;;;;2.45;1.90;;;9.10;1.00;;;;;;6247881;23;20103;-82
2022/11/04 00:35:46;;;;;;;2.45;1.85;;;9.10;93.40;;;;;;6247488;23;20112;-81
2022/11/04 00:38:33;;;;;;;7.60;2.10;;;9.10;99.90;;;;;;6249879;22;20028;-82
2022/11/04 00:41:26;;;;;;;3.30;1.65;;;9.10;1.00;;;;;;6246558;23;20102;-82
2022/11/04 00:44:14;;;;;;;4.03;2.17;;;9.10;99.90;;;;;;6248656;23;20024;-81
2022/11/04 00:47:03;;;;;;;4.22;2.30;;;9.10;99.90;;;;;;6247966;23;20302;-83
2022/11/04 00:49:51;;;;;;;3.10;2.10;;;9.10;99.90;;;;;;6249630;22;20024;-82
2022/11/04 00:52:40;;;;;;;3.88;1.85;;;9.10;99.90;;;;;;6247683;23;20469;-83
2022/11/04 00:55:30;;;;;;;4.45;2.10;;;9.10;99.90;;;;;;6247515;23;20042;-84
2022/11/04 00:58:19;;;;;;;2.72;2.15;;;9.10;99.90;;;;;;6248083;23;20063;-84
2022/11/04 01:01:16;;;;;;;2.33;2.13;;;9.10;90.40;;;;;;6247983;23;20052;-84
2022/11/04 01:04:03;;;;;;;3.13;2.47;;;9.10;1.00;;;;;;6250063;22;20020;-83
2022/11/04 01:06:53;;;;;;;4.43;2.20;;;9.10;1.00;;;;;;6246740;22;20020;-82
2022/11/04 01:09:42;;;;;;;5.80;2.03;;;9.00;99.90;;;;;;6248116;23;20024;-84
2022/11/04 01:12:30;;;;;;;3.85;2.00;;;9.00;99.90;;;;;;6248416;23;20020;-82
2022/11/04 01:15:17;;;;;;;2.95;1.83;;;9.00;64.80;;;;;;6247966;22;20118;-82
2022/11/04 01:18:04;;;;;;;3.45;2.20;;;9.00;99.90;;;;;;6246817;23;20022;-83
2022/11/04 01:20:52;;;;;;;2.00;1.80;;;9.00;1.00;;;;;;6248927;23;20340;-85
2022/11/04 01:23:40;;;;;;;2.88;1.88;;;9.00;71.20;;;;;;6249575;22;20051;-83
2022/11/04 01:26:29;;;;;;;2.55;1.70;;;9.00;99.90;;;;;;6246190;23;20098;-82
2022/11/04 01:29:16;;;;;;;1.95;1.60;;;9.00;1.00;;;;;;6244790;23;20386;-83
2022/11/04 01:32:03;;;;;;;2.50;1.58;;;9.00;99.90;;;;;;6246082;23;20028;-83
2022/11/04 01:34:53;;;;;;;3.50;1.90;;;9.00;99.90;;;;;;6246694;23;20024;-83
2022/11/04 01:37:47;;;;;;;1.48;1.38;;;9.00;90.30;;;;;;6246545;22;20046;-84
2022/11/04 01:40:39;;;;;;;3.03;1.70;;;9.10;99.90;;;;;;6246941;23;20026;-84
2022/11/04 01:43:44;;;;;;;2.15;1.40;;;9.10;99.90;;;;;;6246089;23;20129;-82
2022/11/04 01:46:43;;;;;;;1.60;1.50;;;9.10;99.90;;;;;;6246782;23;20130;-83
2022/11/04 01:49:38;;;;;;;3.60;1.58;;;9.10;29.90;;;;;;6247447;22;20103;-82
2022/11/04 01:52:43;;;;;;;3.90;1.60;;;9.10;1.00;;;;;;6245801;23;20451;-83
2022/11/04 01:55:36;;;;;;;2.30;1.83;;;9.00;1.00;;;;;;6246574;23;20020;-83
2022/11/04 01:58:27;;;;;;;2.88;1.83;;;9.00;1.00;;;;;;6247553;22;20099;-83
2022/11/04 02:01:14;;;;;;;2.70;1.73;;;8.90;1.00;;;;;;6244654;23;20035;-82
2022/11/04 02:07:13;;;;;;;1.40;1.30;;;8.80;1.00;;;;;;6245167;23;20028;-82
2022/11/04 02:10:03;;;;;;;1.92;1.38;;;8.80;1.00;;;;;;6244214;22;20028;-82
2022/11/04 02:12:50;;;;;;;1.75;1.20;;;8.70;1.00;;;;;;6244331;23;20099;-81
2022/11/04 02:15:58;;;;;;;3.88;1.35;;;8.70;99.90;;;;;;6245936;23;20031;-82
2022/11/04 02:18:48;;;;;;;3.35;1.30;;;8.70;99.90;;;;;;6246318;23;20016;-83
2022/11/04 02:21:54;;;;;;;1.98;1.23;;;8.70;99.90;;;;;;6245289;23;20028;-81
2022/11/04 02:25:02;;;;;;;1.85;1.15;;;8.70;1.00;;;;;;6244624;23;20112;-82
2022/11/04 02:28:11;;;;;;;11.43;1.30;;;8.60;1.00;;;;;;6244559;23;20020;-83
2022/11/04 02:31:30;;;;;;;2.22;1.35;;;8.60;1.00;;;;;;6247345;22;20082;-83
2022/11/04 02:34:35;;;;;;;3.72;1.05;;;8.50;99.90;;;;;;6245307;23;20106;-82
2022/11/04 02:37:41;;;;;;;3.20;1.30;;;8.50;99.90;;;;;;6246517;23;20020;-82
2022/11/04 02:40:44;;;;;;;2.00;1.30;;;8.50;99.90;;;;;;6245278;23;20377;-81
2022/11/04 02:43:52;;;;;;;1.50;0.90;;;8.40;99.90;;;;;;6245361;23;20035;-82
2022/11/04 02:46:45;;;;;;;1.63;1.13;;;8.40;19.50;;;;;;6246165;22;20412;-82
2022/11/04 02:49:32;;;;;;;2.05;1.10;;;8.40;1.00;;;;;;6246458;23;20024;-81
2022/11/04 02:52:29;;;;;;;1.05;0.95;;;8.30;1.00;;;;;;6246560;23;20042;-81
2022/11/04 02:55:36;;;;;;;1.30;1.05;;;8.30;1.00;;;;;;6244662;23;20020;-81
2022/11/04 02:58:33;;;;;;;2.08;1.30;;;8.30;99.90;;;;;;6245141;23;20113;-82
2022/11/04 03:01:24;;;;;;;2.13;1.08;;;8.20;99.90;;;;;;6245641;23;20048;-83
2022/11/04 03:04:24;;;;;;;1.13;1.00;;;8.20;99.90;;;;;;6246893;22;20028;-83
2022/11/04 03:07:16;;;;;;;3.63;1.23;;;8.10;99.90;;;;;;6244134;23;20246;-81
2022/11/04 03:10:30;;;;;;;3.78;1.15;;;8.00;99.90;;;;;;6246338;23;20031;-81
2022/11/04 03:13:35;;;;;;;2.47;1.27;;;8.00;99.90;;;;;;6245506;23;20024;-82
2022/11/04 03:16:47;;;;;;;3.63;1.10;;;8.00;99.90;;;;;;6244396;23;20024;-82
2022/11/04 03:19:53;;;;;;;1.85;1.00;;;8.00;99.90;;;;;;6247224;22;20095;-82
2022/11/04 03:22:42;;;;;;;2.45;1.20;;;8.00;99.90;;;;;;6247282;22;20407;-83
2022/11/04 03:25:35;;;;;;;1.58;1.10;;;7.90;99.90;;;;;;6245894;22;20544;-82
2022/11/04 03:28:25;;;;;;;3.08;1.30;;;7.80;1.00;;;;;;6245774;23;20032;-83
2022/11/04 03:31:32;;;;;;;3.00;1.70;;;7.80;1.00;;;;;;6246657;23;20439;-83
2022/11/04 03:34:21;;;;;;;2.65;1.27;;;7.70;1.00;;;;;;6245473;23;20111;-83
2022/11/04 03:37:11;;;;;;;2.85;1.05;;;7.70;8.60;;;;;;6245253;23;20028;-81
2022/11/04 03:39:58;;;;;;;1.88;1.20;;;7.60;21.00;;;;;;6246291;23;20055;-83
2022/11/04 03:42:58;;;;;;;1.98;1.20;;;7.60;40.10;;;;;;6243162;23;20024;-82
2022/11/04 03:45:45;;;;;;;1.60;1.00;;;7.70;31.60;;;;;;6246372;22;20108;-82
2022/11/04 03:48:32;;;;;;;4.10;1.25;;;7.70;1.00;;;;;;6244355;23;20028;-82
2022/11/04 03:51:22;;;;;;;4.22;1.52;;;7.70;1.00;;;;;;6245079;23;20117;-83
2022/11/04 03:54:09;;;;;;;7.53;1.45;;;7.70;1.00;;;;;;6244166;23;20055;-82
2022/11/04 03:57:14;;;;;;;4.35;1.27;;;7.60;1.00;;;;;;6243176;23;20073;-83
2022/11/04 04:00:19;;;;;;;6.38;1.60;;;7.60;1.00;;;;;;6245769;23;20434;-83
2022/11/04 04:03:13;;;;;;;3.95;1.30;;;7.60;1.00;;;;;;6246057;23;20048;-83
2022/11/04 04:06:21;;;;;;;4.32;1.25;;;7.50;1.00;;;;;;6246052;23;20479;-83
2022/11/04 04:09:21;;;;;;;4.32;1.38;;;7.50;1.00;;;;;;6244620;23;20082;-83
2022/11/04 04:12:19;;;;;;;3.92;1.25;;;7.50;1.00;;;;;;6243340;23;20028;-82
2022/11/04 04:15:18;;;;;;;5.10;1.38;;;7.40;1.00;;;;;;6246922;22;20078;-82
2022/11/04 04:18:11;;;;;;;4.18;1.38;;;7.50;1.00;;;;;;6245078;23;20301;-83
2022/11/04 04:21:03;;;;;;;5.38;2.05;;;7.50;1.00;;;;;;6246147;23;20374;-82
2022/11/04 04:30:13;;;;;;;1.83;1.35;;;7.40;1.00;;;;;;6245064;23;20016;-83
2022/11/04 04:33:10;;;;;;;3.35;1.35;;;7.40;1.00;;;;;;6247102;22;20377;-83
2022/11/04 04:35:58;;;;;;;4.38;1.50;;;7.30;1.00;;;;;;6245500;23;20024;-83
2022/11/04 04:45:02;;;;;;;2.38;1.50;;;7.10;99.90;;;;;;6245245;23;20051;-84
2022/11/04 04:47:51;;;;;;;2.30;1.90;;;7.00;83.70;;;;;;6247668;23;20028;-83
2022/11/04 04:50:44;;;;;;;3.80;1.55;;;6.90;99.90;;;;;;6246871;23;20038;-83
2022/11/04 04:53:31;;;;;;;3.97;1.50;;;6.90;99.90;;;;;;6246357;23;20052;-83
2022/11/04 04:56:18;;;;;;;7.97;1.70;;;6.70;1.00;;;;;;6246144;23;20020;-83
2022/11/04 04:59:06;;;;;;;5.28;1.52;;;6.70;99.90;;;;;;6246528;23;20024;-82
2022/11/04 05:01:56;;;;;;;1.58;1.20;;;6.60;31.70;;;;;;6246239;23;20082;-82
2022/11/04 05:04:43;;;;;;;3.80;1.38;;;6.40;1.00;;;;;;6248485;23;20138;-83
2022/11/04 05:07:33;;;;;;;2.80;1.52;;;6.40;1.00;;;;;;6248867;23;20117;-83
2022/11/04 05:10:20;;;;;;;7.07;1.80;;;6.30;11.00;;;;;;6249115;23;20028;-83
2022/11/04 05:13:28;;;;;;;4.90;2.17;;;6.30;99.90;;;;;;6250620;22;20039;-83
2022/11/04 05:16:15;;;;;;;4.32;2.20;;;6.40;99.90;;;;;;6247249;23;20388;-82
2022/11/04 05:19:03;;;;;;;4.35;2.55;;;6.40;99.90;;;;;;6247800;23;20099;-83
2022/11/04 05:21:50;;;;;;;9.90;2.53;;;6.40;1.00;;;;;;6246968;23;20020;-83
2022/11/04 05:24:39;;;;;;;6.80;1.98;;;6.40;1.00;;;;;;6246496;23;20056;-81
2022/11/04 05:27:26;;;;;;;3.15;2.00;;;6.30;1.00;;;;;;6248525;22;20038;-82
2022/11/04 05:30:13;;;;;;;3.88;2.30;;;6.40;1.00;;;;;;6246479;23;20359;-80
2022/11/04 05:33:00;;;;;;;4.32;2.13;;;6.40;8.70;;;;;;6246222;23;20147;-82
2022/11/04 05:35:53;;;;;;;3.92;2.00;;;6.40;4.90;;;;;;6248220;22;20024;-81
2022/11/04 05:38:42;;;;;;;7.22;2.45;;;6.50;7.60;;;;;;6246045;23;20286;-82
2022/11/04 05:41:29;;;;;;;4.57;1.60;;;6.40;31.60;;;;;;6244959;23;20283;-82
2022/11/04 05:44:16;;;;;;;9.60;2.00;;;6.60;99.90;;;;;;6247317;23;20462;-82
2022/11/04 05:47:03;;;;;;;6.00;1.70;;;6.60;99.90;;;;;;6246504;23;20363;-82
2022/11/04 05:49:50;;;;;;;6.10;1.83;;;6.60;87.80;;;;;;6245666;23;20028;-82
2022/11/04 05:52:37;;;;;;;4.15;2.00;;;6.60;99.90;;;;;;6244819;23;20443;-81
2022/11/04 05:55:25;;;;;;;3.97;1.70;;;6.60;99.90;;;;;;6245902;23;20083;-82
2022/11/04 05:58:15;;;;;;;2.95;1.73;;;6.50;99.90;;;;;;6245651;23;20103;-84
2022/11/04 06:01:12;;;;;;;4.65;1.95;;;6.40;99.90;;;;;;6247807;23;20109;-84
2022/11/04 06:04:01;;;;;;;5.22;2.65;;;6.30;99.90;;;;;;6246931;23;20443;-83
2022/11/04 06:06:48;;;;;;;3.92;2.50;;;6.20;99.90;;;;;;6247940;23;20024;-83
2022/11/04 06:09:38;;;;;;;6.80;2.20;;;6.10;99.90;;;;;;6247204;23;20032;-85
2022/11/04 06:12:26;;;;;;;2.35;2.00;;;6.00;99.90;;;;;;6245110;23;20032;-84
2022/11/04 06:15:13;;;;;;;4.40;2.05;;;5.90;99.90;;;;;;6244003;23;20045;-83
2022/11/04 06:18:00;;;;;;;6.63;2.22;;;5.90;99.90;;;;;;6247014;23;20085;-86
2022/11/04 06:20:47;;;;;;;9.70;2.80;;;6.10;99.90;;;;;;6246353;23;20434;-88
2022/11/04 06:23:34;;;;;;;9.13;3.25;;;6.20;99.90;;;;;;6243651;23;20399;-85
2022/11/04 06:26:23;;;;;;;8.73;4.53;;;6.10;99.90;;;;;;6242684;23;20028;-85
2022/11/04 06:29:14;;;;;;;6.90;4.43;;;6.10;99.90;;;;;;6246260;23;20023;-84
2022/11/04 06:32:04;;;;;;;5.97;3.70;;;6.10;99.90;;;;;;6243505;23;20036;-82
2022/11/04 06:34:51;;;;;;;6.68;3.92;;;6.10;99.90;;;;;;6247075;22;20403;-82
2022/11/04 06:37:41;;;;;;;5.55;4.15;;;6.10;99.90;;;;;;6245362;23;20024;-83
2022/11/04 06:40:30;;;;;;;13.27;6.47;;;6.00;99.90;;;;;;6246676;23;20099;-83
2022/11/04 06:43:17;;;;;;;9.50;3.90;;;6.00;99.90;;;;;;6246070;23;20360;-83
2022/11/04 06:46:05;;;;;;;8.35;4.88;;;6.00;99.90;;;;;;6248005;22;20024;-86
2022/11/04 06:48:56;;;;;;;7.20;4.80;;;6.00;99.90;;;;;;6246788;23;20150;-86
2022/11/04 06:51:46;;;;;;;8.90;5.10;;;6.00;99.90;;;;;;6245695;23;20071;-86
2022/11/04 06:54:44;;;;;;;10.77;4.90;;;6.00;99.90;;;;;;6244902;23;20027;-85
2022/11/04 06:57:31;;;;;;;9.20;4.10;;;5.90;99.90;;;;;;6246534;22;20104;-85
2022/11/04 07:00:21;;;;;;;8.23;3.85;;;6.00;99.90;;;;;;6248080;23;20031;-83
2022/11/04 07:03:09;;;;;;;8.88;3.72;;;6.10;99.90;;;;;;6249224;22;20093;-84
2022/11/04 07:05:58;;;;;;;4.95;2.80;;;6.20;99.90;;;;;;6247607;23;20090;-88
2022/11/04 07:08:49;;;;;;;6.47;3.20;;;6.30;99.90;;;;;;6247434;23;20077;-85
2022/11/04 07:11:44;;;;;;;4.18;3.10;;;6.40;99.90;;;;;;6247273;23;20023;-84
2022/11/04 07:14:34;;;;;;;14.48;3.42;;;6.50;99.90;;;;;;6247480;23;20024;-84
2022/11/04 07:17:22;;;;;;;5.20;3.00;;;6.50;99.90;;;;;;6249306;23;20414;-84
2022/11/04 07:20:17;;;;;;;4.13;2.83;;;6.50;99.90;;;;;;6248121;23;20111;-84
2022/11/04 07:23:05;;;;;;;6.10;3.00;;;6.60;99.90;;;;;;6248999;22;20391;-84
2022/11/04 07:30:47;;;;;;;5.68;2.85;;;6.60;99.90;;;;;;6245000;23;20020;-82
2022/11/04 07:34:07;;;;;;;6.95;3.10;;;6.70;99.90;;;;;;6134793;22;20160;-82
2022/11/04 07:37:14;;;;;;;5.18;2.60;;;6.70;99.90;;;;;;6249302;22;20020;-83
2022/11/04 07:40:06;;;;;;;3.95;2.50;;;6.70;99.90;;;;;;6242652;23;20439;-82
2022/11/04 07:43:00;;;;;;;4.13;2.97;;;6.80;99.90;;;;;;6246223;23;20020;-82
2022/11/04 07:46:05;;;;;;;5.97;3.92;;;6.90;99.90;;;;;;6246382;22;20396;-81
2022/11/04 07:49:32;;;;;;;;;;;;;;;;;;;;;
2022/11/04 07:52:37;;;;;;;4.03;3.03;;;6.90;99.90;;;;;;6241227;22;20024;-84
2022/11/04 07:55:26;;;;;;;4.32;3.10;;;7.00;99.90;;;;;;6248403;23;20497;-84
2022/11/04 07:58:14;;;;;;;6.10;2.90;;;7.00;99.90;;;;;;6246105;23;20024;-83
2022/11/04 08:01:12;;;;;;;8.30;2.85;;;7.10;99.90;;;;;;6243405;23;20024;-83
2022/11/04 08:04:11;;;;;;;5.60;2.40;;;7.10;99.90;;;;;;6245758;23;20027;-84
2022/11/04 08:07:06;;;;;;;2.95;2.22;;;7.20;99.90;;;;;;6245465;23;20039;-84
2022/11/04 08:09:58;;;;;;;5.18;2.42;;;7.40;32.50;;;;;;6245561;23;20107;-84
2022/11/04 08:12:53;;;;;;;4.88;2.47;;;7.50;1.00;;;;;;6246042;23;20040;-86
2022/11/04 08:19:48;;;;;;;10.05;4.82;;;7.70;99.90;;;;;;6214831;22;20024;-86
2022/11/04 08:22:42;;;;;;;7.35;3.80;;;7.80;99.90;;;;;;6247722;23;20024;-87
2022/11/04 08:25:44;;;;;;;6.72;3.90;;;7.90;99.90;;;;;;6245203;23;20032;-86
2022/11/04 08:32:58;;;;;;;6.35;2.30;;;8.10;99.90;;;;;;6120667;23;20030;-84
2022/11/04 08:36:15;;;;;;;5.78;1.88;;;8.20;1.00;;;;;;6010471;23;20031;-84
2022/11/04 08:39:13;;;;;;;5.68;2.03;;;8.30;99.90;;;;;;6012036;23;20032;-85
2022/11/04 08:42:10;;;;;;;3.20;1.45;;;8.50;1.00;;;;;;6030513;23;20679;-85
2022/11/04 08:45:06;;;;;;;3.88;1.20;;;8.60;99.90;;;;;;6110395;23;20032;-82
2022/11/04 08:47:59;;;;;;;4.22;1.10;;;8.60;99.90;;;;;;6157030;23;20044;-84
2022/11/04 08:50:59;;;;;;;3.45;1.58;;;8.70;1.00;;;;;;6155680;23;20031;-83
2022/11/04 08:53:53;;;;;;;4.47;2.00;;;8.80;1.00;;;;;;6137809;23;20048;-83
2022/11/04 08:56:47;;;;;;;1.85;1.33;;;8.80;99.90;;;;;;6154404;23;20036;-82
2022/11/04 08:59:43;;;;;;;4.22;1.25;;;8.90;99.90;;;;;;6181973;23;20107;-84
2022/11/04 09:02:33;;;;;;;3.33;1.65;;;9.00;99.90;;;;;;6244897;23;20099;-85
2022/11/04 09:05:32;;;;;;;3.85;1.10;;;8.90;99.90;;;;;;6244940;23;20034;-84
2022/11/04 09:08:27;;;;;;;3.75;1.30;;;8.80;99.90;;;;;;6245704;23;20027;-84
2022/11/04 09:11:17;;;;;;;4.25;1.65;;;8.90;99.90;;;;;;6246195;23;20095;-86
2022/11/04 09:14:12;;;;;;;8.07;1.52;;;9.00;99.90;;;;;;6257496;23;20035;-83
2022/11/04 09:17:06;;;;;;;2.92;1.40;;;9.00;99.90;;;;;;6258516;23;20046;-85
2022/11/04 09:20:11;;;;;;;6.80;1.60;;;9.10;99.90;;;;;;6243874;23;20043;-82
2022/11/04 09:23:02;;;;;;;3.53;1.17;;;9.10;99.90;;;;;;6245657;23;20379;-84
2022/11/04 09:25:52;;;;;;;5.68;1.35;;;9.00;99.90;;;;;;6249319;22;20024;-84
2022/11/04 09:28:42;;;;;;;4.22;1.50;;;9.10;99.90;;;;;;6246531;23;20021;-83
2022/11/04 09:31:35;;;;;;;4.22;1.38;;;9.20;99.90;;;;;;6245759;23;20415;-81
2022/11/04 09:34:27;;;;;;;3.10;1.60;;;9.30;99.90;;;;;;6245189;23;20408;-82
2022/11/04 09:37:24;;;;;;;2.30;1.40;;;9.40;99.90;;;;;;6244546;23;20034;-82
2022/11/04 09:40:18;;;;;;;3.00;1.50;;;9.60;99.90;;;;;;6245553;23;20313;-83
2022/11/04 09:43:14;;;;;;;3.10;1.42;;;9.70;99.90;;;;;;6246242;23;20074;-83
2022/11/04 09:46:13;;;;;;;2.15;1.33;;;9.80;93.50;;;;;;6245277;23;20024;-84
2022/11/04 09:49:17;;;;;;;3.03;1.30;;;9.80;61.50;;;;;;6243690;23;20032;-84
2022/11/04 09:52:23;;;;;;;6.47;1.45;;;10.00;28.90;;;;;;6244067;23;20028;-84
2022/11/04 09:55:31;;;;;;;2.72;1.50;;;10.10;10.20;;;;;;6244885;23;20039;-84
2022/11/04 09:58:21;;;;;;;5.28;1.38;;;10.40;1.00;;;;;;6245486;23;20024;-83
2022/11/04 10:01:34;;;;;;;2.80;1.30;;;10.60;1.00;;;;;;6246011;23;20020;-84
2022/11/04 10:05:20;;;;;;;1.83;0.98;;;10.60;1.00;;;;;;6245444;23;20422;-83
2022/11/04 10:08:47;;;;;;;2.55;1.52;;;10.40;1.00;;;;;;6133325;23;20025;-86
2022/11/04 10:11:57;;;;;;;2.20;1.13;;;10.60;1.00;;;;;;6247179;23;20039;-84
2022/11/04 10:15:14;;;;;;;3.20;1.52;;;10.50;1.00;;;;;;6244326;23;20052;-83
2022/11/04 10:18:26;;;;;;;4.90;1.50;;;10.30;1.00;;;;;;6245958;23;20051;-85
2022/11/04 10:21:28;;;;;;;6.65;1.20;;;10.20;1.00;;;;;;6246146;23;20027;-83
2022/11/04 10:24:45;;;;;;;5.72;1.15;;;10.10;1.00;;;;;;6247044;23;20024;-85
2022/11/04 10:27:38;;;;;;;11.23;1.20;;;10.30;1.00;;;;;;6241550;23;20103;-85
2022/11/04 10:30:30;;;;;;;4.57;1.45;;;10.40;1.00;;;;;;6244682;23;20416;-86
2022/11/04 10:33:34;;;;;;;7.00;1.50;;;10.30;1.00;;;;;;6243913;23;20031;-84
2022/11/04 10:36:24;;;;;;;4.85;1.27;;;10.40;1.00;;;;;;6246202;23;20289;-85
2022/11/04 10:39:22;;;;;;;6.25;1.50;;;10.50;1.00;;;;;;6245132;23;20032;-84
2022/11/04 10:42:19;;;;;;;4.25;1.38;;;10.60;99.90;;;;;;6245125;23;20569;-86
2022/11/04 10:45:12;;;;;;;8.32;1.77;;;10.50;99.90;;;;;;6251711;23;20095;-85
2022/11/04 10:48:26;;;;;;;7.10;1.33;;;10.50;99.90;;;;;;6242618;23;20478;-86
2022/11/04 10:51:22;;;;;;;7.32;1.88;;;10.60;99.90;;;;;;6244796;23;20024;-83
2022/11/04 10:54:38;;;;;;;7.50;1.65;;;10.80;99.90;;;;;;6243705;23;20020;-85
2022/11/04 10:57:45;;;;;;;7.20;1.73;;;10.90;99.90;;;;;;6245359;23;20051;-84
2022/11/04 11:00:43;;;;;;;5.47;1.23;;;11.10;99.90;;;;;;6244583;23;20439;-82
2022/11/04 11:08:06;;;;;;;7.68;1.50;;;10.60;99.90;;;;;;6244228;23;20043;-80
2022/11/04 11:11:35;;;;;;;8.38;1.70;;;10.50;99.90;;;;;;6245942;23;20038;-81
2022/11/04 11:14:27;;;;;;;13.20;1.95;;;10.60;99.90;;;;;;6243359;23;20028;-82
2022/11/04 11:17:42;;;;;;;3.67;1.25;;;10.70;99.90;;;;;;6246985;22;20024;-85
2022/11/04 11:20:37;;;;;;;6.85;1.90;;;10.90;99.90;;;;;;6245408;23;20027;-85
2022/11/04 11:23:46;;;;;;;4.22;1.80;;;10.70;99.90;;;;;;6245771;23;20103;-84
2022/11/04 11:26:34;;;;;;;4.80;1.80;;;10.50;99.90;;;;;;6245856;23;20035;-84
2022/11/04 11:29:25;;;;;;;6.20;1.70;;;10.50;99.90;;;;;;6243474;23;20434;-81
2022/11/04 11:32:42;;;;;;;6.53;1.52;;;10.70;99.90;;;;;;6245736;23;20063;-81
2022/11/04 11:36:38;;;;;;;6.68;1.58;;;11.20;99.90;;;;;;6228185;23;20538;-81
2022/11/04 11:39:27;;;;;;;;;;;11.40;99.90;;;;;;6246139;23;20055;-82
2022/11/04 11:42:20;;;;;;;4.47;1.90;;;11.50;99.90;;;;;;6243790;23;19970;-84
2022/11/04 11:45:18;;;;;;;6.35;1.50;;;11.70;99.90;;;;;;6243723;23;20099;-84
2022/11/04 11:48:26;;;;;;;7.57;1.60;;;11.90;99.90;;;;;;6242834;23;20112;-84
2022/11/04 11:51:23;;;;;;;5.32;1.50;;;11.80;99.90;;;;;;6245384;22;20082;-84
2022/11/04 11:54:32;;;;;;;7.78;1.55;;;11.70;99.90;;;;;;6242288;23;20039;-83
2022/11/04 11:57:32;;;;;;;3.28;1.50;;;11.50;99.90;;;;;;6244000;23;20103;-82
2022/11/04 12:00:27;;;;;;;4.93;2.22;;;11.40;99.90;;;;;;6244346;23;20024;-82
2022/11/04 12:03:42;;;;;;;6.38;1.77;;;11.20;99.90;;;;;;6244949;22;20035;-82
2022/11/04 12:07:14;;;;;;;10.52;1.73;;;11.20;99.90;;;;;;6244028;23;20039;-83
2022/11/04 12:10:44;;;;;;;6.88;1.92;;;11.20;99.90;;;;;;6242904;23;20024;-82
2022/11/04 12:17:59;;;;;;;7.03;1.83;;;11.10;99.90;;;;;;6239653;23;20119;-85
2022/11/04 12:21:20;;;;;;;8.32;1.80;;;11.10;99.90;;;;;;6245976;23;20062;-84
2022/11/04 12:24:30;;;;;;;5.35;1.48;;;11.20;99.90;;;;;;6245974;23;20030;-86
2022/11/04 12:27:46;;;;;;;5.88;2.15;;;11.40;99.90;;;;;;6244143;22;20115;-86
2022/11/04 12:30:53;;;;;;;5.63;1.83;;;11.60;99.90;;;;;;6241061;23;20332;-84
2022/11/04 12:34:09;;;;;;;9.52;2.03;;;12.00;99.90;;;;;;6244718;23;20024;-84
2022/11/04 12:36:59;;;;;;;10.43;1.95;;;12.30;99.90;;;;;;6241640;23;20099;-84
2022/11/04 12:40:09;;;;;;;11.13;1.77;;;13.30;99.90;;;;;;6245867;23;20036;-84
2022/11/04 12:43:14;;;;;;;5.05;1.73;;;13.40;99.90;;;;;;6242202;23;20028;-84
2022/11/04 12:46:11;;;;;;;7.07;1.48;;;13.10;99.90;;;;;;6244126;22;20020;-83
2022/11/04 12:48:59;;;;;;;4.55;1.50;;;12.80;99.90;;;;;;6243533;23;20028;-84
2022/11/04 12:52:11;;;;;;;5.53;1.42;;;12.80;99.90;;;;;;6243308;23;20115;-84
2022/11/04 12:55:33;;;;;;;17.45;2.13;;;12.50;99.90;;;;;;6243487;23;20024;-84
2022/11/04 12:58:51;;;;;;;10.55;1.73;;;12.20;99.90;;;;;;6201725;23;20031;-85
2022/11/04 13:01:53;;;;;;;4.22;1.52;;;12.20;99.90;;;;;;6243701;23;20466;-82
2022/11/04 13:05:07;;;;;;;2.40;1.45;;;12.50;99.90;;;;;;6244192;23;20024;-85
2022/11/04 13:08:20;;;;;;;3.67;1.30;;;12.50;99.90;;;;;;6214616;22;20028;-86
2022/11/04 13:11:21;;;;;;;6.63;1.70;;;12.90;99.90;;;;;;6245092;23;20039;-86
2022/11/04 13:14:18;;;;;;;3.13;1.15;;;12.70;99.90;;;;;;6245201;22;20028;-86
2022/11/04 13:17:10;;;;;;;8.13;1.45;;;12.20;99.90;;;;;;6243957;23;20105;-84
2022/11/04 13:20:26;;;;;;;10.55;1.98;;;11.90;99.90;;;;;;6242814;23;20319;-85
2022/11/04 13:23:31;;;;;;;6.57;1.38;;;12.10;99.90;;;;;;6245239;23;20032;-83
2022/11/04 13:26:26;;;;;;;6.25;1.77;;;12.30;99.90;;;;;;6246245;23;20050;-85
2022/11/04 13:29:16;;;;;;;7.70;1.40;;;12.90;99.90;;;;;;6243412;23;20024;-86
2022/11/04 13:32:06;;;;;;;6.53;1.30;;;13.70;99.90;;;;;;6244366;23;20146;-84
2022/11/04 13:35:22;;;;;;;5.82;1.20;;;14.30;99.90;;;;;;6246206;23;20039;-87
2022/11/04 13:38:20;;;;;;;7.40;1.23;;;14.60;99.90;;;;;;6245052;23;20103;-86
2022/11/04 13:41:34;;;;;;;4.70;1.40;;;13.90;99.90;;;;;;6225034;23;20089;-83
2022/11/04 13:44:56;;;;;;;5.78;1.42;;;13.30;99.90;;;;;;6246276;22;20100;-83
2022/11/04 13:47:43;;;;;;;7.07;1.38;;;13.80;99.90;;;;;;6239696;22;20050;-83
2022/11/04 13:50:35;;;;;;;5.45;0.77;;;16.10;99.90;;;;;;6244522;23;20304;-83
2022/11/04 13:53:47;;;;;;;2.92;0.68;;;17.30;99.90;;;;;;6244968;23;20028;-82
2022/11/04 13:56:41;;;;;;;0.77;0.50;;;18.60;99.90;;;;;;6243197;23;20027;-82
2022/11/04 13:59:32;;;;;;;1.00;0.60;;;18.20;97.90;;;;;;6245070;23;20024;-83
2022/11/04 14:02:19;;;;;;;3.35;0.70;;;16.60;91.40;;;;;;6243270;23;20024;-84
2022/11/04 14:05:26;;;;;;;2.38;0.88;;;15.40;90.10;;;;;;6246935;22;20024;-85
2022/11/04 14:08:15;;;;;;;4.07;0.82;;;14.10;95.10;;;;;;6246444;23;20110;-84
2022/11/04 14:11:07;;;;;;;3.60;1.05;;;13.20;99.90;;;;;;6243846;23;20043;-86
2022/11/04 14:14:14;;;;;;;2.88;0.82;;;12.50;99.90;;;;;;6243982;23;20028;-85
2022/11/04 14:17:06;;;;;;;0.75;0.52;;;11.90;99.90;;;;;;6246060;23;20028;-84
2022/11/04 14:19:59;;;;;;;2.45;0.85;;;11.40;99.90;;;;;;6249089;23;20019;-82
2022/11/04 14:22:56;;;;;;;2.72;0.75;;;10.80;99.90;;;;;;6248147;22;20024;-86
2022/11/04 14:26:03;;;;;;;1.90;0.88;;;10.50;99.90;;;;;;6246013;23;20323;-85
2022/11/04 14:29:25;;;;;;;2.15;0.90;;;10.20;99.90;;;;;;6244870;23;20055;-83
2022/11/04 14:32:21;;;;;;;2.10;0.98;;;10.00;99.90;;;;;;6243886;23;20395;-83
2022/11/04 14:35:17;;;;;;;2.17;1.00;;;9.80;99.90;;;;;;6245413;23;20082;-82
2022/11/04 14:38:28;;;;;;;2.25;1.00;;;9.60;99.90;;;;;;6242983;23;20471;-82
2022/11/04 14:41:27;;;;;;;2.08;0.80;;;9.40;99.90;;;;;;6243378;23;20092;-82
2022/11/04 14:44:51;;;;;;;3.80;1.08;;;9.40;99.90;;;;;;6244439;23;20439;-84
2022/11/04 14:47:42;;;;;;;4.05;1.05;;;9.30;1.00;;;;;;6244376;23;20030;-83
2022/11/04 14:50:29;;;;;;;1.70;0.90;;;9.30;1.00;;;;;;6245255;23;20035;-83
2022/11/04 14:53:43;;;;;;;2.38;0.82;;;9.30;1.00;;;;;;6242720;23;20052;-82
2022/11/04 14:56:35;;;;;;;3.33;1.15;;;9.50;1.00;;;;;;6244595;23;20404;-81
2022/11/04 14:59:27;;;;;;;3.72;1.00;;;9.60;1.00;;;;;;6243682;23;20024;-81
2022/11/04 15:02:34;;;;;;;2.47;0.85;;;9.70;1.00;;;;;;6243561;23;20485;-81
2022/11/04 15:05:25;;;;;;;3.33;1.15;;;9.70;2.80;;;;;;6243537;23;20046;-83
2022/11/04 15:08:31;;;;;;;1.58;0.90;;;9.50;7.90;;;;;;6244638;23;20103;-85
2022/11/04 15:12:49;;;;;;;4.78;1.10;;;9.40;6.40;;;;;;6245105;23;20123;-85
2022/11/04 15:14:27;;;;;;;1.83;0.90;;;9.30;9.40;;;;;;6247106;22;20431;-85
2022/11/04 15:17:21;;;;;;;1.73;0.80;;;9.20;24.00;;;;;;6246384;22;20453;-84
2022/11/04 15:20:23;;;;;;;2.45;1.10;;;9.10;50.80;;;;;;6245655;23;20175;-85
2022/11/04 15:23:15;;;;;;;4.63;1.15;;;9.10;80.60;;;;;;6247300;22;20103;-86
2022/11/04 15:26:03;;;;;;;2.58;1.65;;;9.00;99.90;;;;;;6244730;23;20035;-85
2022/11/04 15:28:51;;;;;;;3.03;1.70;;;9.00;99.90;;;;;;6245256;23;20048;-86
2022/11/04 15:31:51;;;;;;;5.78;1.42;;;8.90;99.90;;;;;;6247041;22;20102;-85
2022/11/04 15:34:41;;;;;;;3.22;1.02;;;8.80;99.90;;;;;;6244099;23;20028;-87
2022/11/04 15:37:29;;;;;;;4.90;2.75;;;8.70;99.90;;;;;;6248640;23;20028;-86
2022/11/04 15:40:20;;;;;;;5.80;2.75;;;8.60;99.90;;;;;;6245183;23;20024;-85
2022/11/04 15:43:07;;;;;;;6.68;3.20;;;8.50;99.90;;;;;;6246891;22;20053;-85
2022/11/04 15:45:55;;;;;;;9.63;2.92;;;8.50;99.90;;;;;;6245387;23;20086;-85
2022/11/04 15:49:03;;;;;;;6.03;1.70;;;8.30;99.90;;;;;;6245236;23;20078;-84
2022/11/04 15:52:03;;;;;;;5.35;1.23;;;8.20;99.90;;;;;;6248866;22;20102;-85
2022/11/04 15:55:00;;;;;;;6.28;1.80;;;8.10;99.90;;;;;;6245961;23;20035;-88
2022/11/04 15:57:48;;;;;;;3.08;1.67;;;8.00;99.90;;;;;;6244166;23;20042;-86
2022/11/04 16:00:36;;;;;;;4.10;1.70;;;7.90;1.00;;;;;;6245994;23;20027;-85
2022/11/04 16:03:25;;;;;;;3.28;2.05;;;7.80;1.00;;;;;;6243360;23;20023;-85
2022/11/04 16:06:13;;;;;;;4.30;2.72;;;7.80;99.90;;;;;;6244577;23;20085;-84
2022/11/04 16:09:07;;;;;;;5.65;3.50;;;7.80;99.90;;;;;;6241834;23;20028;-83
2022/11/04 16:12:44;;;;;;;3.78;1.38;;;7.80;99.90;;;;;;6243845;23;20028;-83
2022/11/04 16:15:40;;;;;;;2.55;1.33;;;7.80;99.90;;;;;;6218899;23;20071;-83
2022/11/04 16:18:35;;;;;;;2.53;1.48;;;7.70;1.00;;;;;;6244524;23;20162;-84
2022/11/04 16:21:30;;;;;;;2.95;1.40;;;7.70;1.00;;;;;;6244632;23;20045;-84
2022/11/04 16:24:24;;;;;;;2.50;1.73;;;7.70;1.00;;;;;;6243795;23;20350;-85
2022/11/04 16:27:17;;;;;;;3.53;1.50;;;7.70;1.00;;;;;;6244661;23;20024;-85